Flight Track Log - Related Links

Times and Time Zones

All times are in EDT time to prevent confusion due to time zone crossing. See the N143DE flight status page for this flight to view local times or setup timezone preferences in your user account.

Time Position Orientation Groundspeed Altitude Reporting Facility
EDT Latitude Longitude Course Direction KTS MPH feet Rate Location/Type
Wed 08:36:51 AM 34.0167 -84.6333 North 146 168 2,600  Level Atlanta TRACON
Wed 08:38:42 AM 34.1164 -84.6308 North 202 232 4,100 912 Climbing Atlanta Center
Wed 08:39:42 AM 34.1706 -84.6289 North 202 232 5,200 1,300 Climbing Atlanta Center
Wed 08:40:42 AM 34.2228 -84.6517 340° North 190 219 6,700 1,450 Climbing Atlanta Center
Wed 08:41:42 AM 34.2706 -84.6797 334° Northwest 190 219 8,100 1,550 Climbing Atlanta Center
Wed 08:42:42 AM 34.3206 -84.7153 330° Northwest 201 231 9,800 1,600 Climbing Atlanta Center
Wed 08:43:42 AM 34.3683 -84.7483 330° Northwest 201 231 11,300 1,350 Climbing Atlanta Center
Wed 08:44:42 AM 34.4203 -84.7842 330° Northwest 206 237 12,500 1,150 Climbing Atlanta Center
Wed 08:45:42 AM 34.4722 -84.8197 331° Northwest 206 237 13,600 750 Climbing Atlanta Center
Wed 08:46:42 AM 34.5261 -84.8558 331° Northwest 206 237 14,000 200 Climbing Atlanta Center
Wed 08:47:42 AM 34.5886 -84.8967 332° Northwest 230 265 14,000  Level Atlanta Center
Wed 08:48:42 AM 34.6489 -84.9378 331° Northwest 243 280 14,000  Level Atlanta Center
Wed 08:49:42 AM 34.7131 -84.9814 331° Northwest 248 285 14,000  Level Atlanta Center
Wed 08:50:42 AM 34.7753 -85.0250 330° Northwest 248 285 14,000  Level Atlanta Center
Wed 08:52:31 AM 34.8897 -85.1039 331° Northwest 260 299 14,000  Level Memphis Center
Wed 08:53:31 AM 34.9542 -85.1481 331° Northwest 265 305 14,000  Level Memphis Center
Wed 08:54:31 AM 35.0047 -85.2083 316° Northwest 259 298 14,000  Level Memphis Center
Wed 08:55:31 AM 35.0575 -85.2711 316° Northwest 252 290 14,000  Level Memphis Center
Wed 08:56:31 AM 35.1017 -85.3344 310° West 257 296 14,000  Level Memphis Center
Wed 08:57:31 AM 35.1542 -85.3972 316° Northwest 257 296 14,000 -50 Level Memphis Center
Wed 08:58:31 AM 35.2028 -85.4603 313° West 257 296 13,900 -500 Descending Memphis Center
Wed 08:59:31 AM 35.2228 -85.5481 286° West 251 289 13,000 -800 Descending Memphis Center
Wed 09:00:31 AM 35.2325 -85.6392 277° West 259 298 12,300 -800 Descending Memphis Center
Wed 09:01:31 AM 35.2464 -85.7272 281° West 264 304 11,400 -650 Descending Memphis Center
Wed 09:02:31 AM 35.2581 -85.8156 279° West 264 304 11,000 -200 Descending Memphis Center
Wed 09:03:31 AM 35.2917 -85.8825 302° West 236 272 11,000  Level Memphis Center
Wed 09:04:31 AM 35.3536 -85.9225 332° Northwest 231 266 11,000  Level Memphis Center
Wed 09:05:31 AM 35.4075 -85.9756 321° Northwest 241 277 11,000 -150 Level Memphis Center
Wed 09:06:31 AM 35.4614 -86.0236 324° Northwest 241 277 10,700 -750 Descending Memphis Center
Wed 09:07:31 AM 35.5175 -86.0769 322° Northwest 246 283 9,500 -1,200 Descending Memphis Center
Wed 09:08:31 AM 35.5778 -86.1300 324° Northwest 257 296 8,300 -750 Descending Memphis Center
Wed 09:09:31 AM 35.6378 -86.1831 324° Northwest 257 296 8,000 -150 Descending Memphis Center
Wed 09:10:31 AM 35.6853 -86.2267 323° Northwest 249 287 8,000 -700 Level Memphis Center
Wed 09:11:31 AM 35.7447 -86.2569 338° Northwest 243 280 6,600 -1,050 Descending Memphis Center
Wed 09:12:31 AM 35.7994 -86.2772 343° North 222 255 5,900 -350 Descending Memphis Center
Wed 09:13:31 AM 35.8458 -86.2928 345° North 187 215 5,900 -150 Level Memphis Center
Wed 09:14:31 AM 35.8925 -86.3111 342° North 176 203 5,600 -900 Descending Memphis Center
Wed 09:15:31 AM 35.9433 -86.3394 336° Northwest 186 214 4,100 -900 Descending Memphis Center
Wed 09:16:31 AM 35.9300 -86.3811 248° West 127 146 3,800 -600 Descending Memphis Center
Wed 09:17:31 AM 35.9039 -86.4106 222° Southwest 114 131 2,900 -750 Descending Memphis Center
Wed 09:18:31 AM 35.9339 -86.4397 322° Northwest 94 108 2,300 -650 Descending Memphis Center
Wed 09:19:31 AM 35.9600 -86.4694 317° Northwest 112 129 1,600 -650 Descending Memphis Center
Wed 09:20:31 AM 35.9858 -86.4964 320° Northwest 123 142 1,000 -350 Descending Memphis Center
Wed 09:21:31 AM 36.0097 -86.5233 318° Northwest 123 142 900 -100 Descending Memphis Center

Login

Don't have an account? Register now (free) for customized features, flight alerts, and more!